»·PEaware :: N441PW CYZP-PAGS

N441PW :: CYZP-PAGS

FLIGHT INFORMATION

Flight Status: Arrived
Operator: Privately registered:
United States
More flights under this callsign
Pilot: Stacy K. (11621)
Aircraft: CESSNA 404 TITAN
(C404)
More flights by this aircraft type
Origin: CYZP Sandspit
Canada
Destination: PAGS Gustavus
United States
More flights between these airports :: More routes between these airports
Route: ZZP ANN RGL AFE EEF
File this flight plan on PilotEdge
Remarks:
Altitude:
(Current/Filed)
4,500ft
Speed:
(Current/Filed)
190kts
Departed: 24-Jun-19 05:12 PM
Arrived: 24-Jun-19 07:12 PM
Distance/Time
Traveled:
337nm/2:00
Distance/Time
To Go:
Arrived

Flight Plot

Page will automatically refresh every two minutes.

Flight plan parsing failed; only flown route is shown


Map Options




Map Legend


Flown Route
Filed Route
Departure Airport
Arrival Airport
Navaid (VOR, NDB)
Fix

Horizontal Profiles

Position Reports

Time Latitude Longitude Heading Altitude Ground
Speed
24-Jun-19 17:05 53.253405 -131.816278 146 25ft 0kts
24-Jun-19 17:06 53.253405 -131.816278 146 25ft 0kts
24-Jun-19 17:07 53.253405 -131.816278 146 25ft 0kts
24-Jun-19 17:08 53.253405 -131.816278 146 25ft 0kts
24-Jun-19 17:09 53.253652 -131.815364 55 25ft 13kts
24-Jun-19 17:10 53.258857 -131.819277 320 25ft 25kts
24-Jun-19 17:11 53.249034 -131.806717 126 595ft 86kts
24-Jun-19 17:12 53.267221 -131.782472 316 1633ft 138kts
24-Jun-19 17:13 53.281327 -131.842491 305 2561ft 146kts
24-Jun-19 17:14 53.311440 -131.888829 321 3367ft 148kts
24-Jun-19 17:15 53.343894 -131.931617 324 4166ft 149kts
24-Jun-19 17:16 53.386313 -131.932789 9 4493ft 165kts
24-Jun-19 17:17 53.432735 -131.923031 8 4492ft 169kts
24-Jun-19 17:18 53.479835 -131.913461 8 4491ft 170kts
24-Jun-19 17:19 53.526674 -131.903881 8 4500ft 169kts
24-Jun-19 17:20 53.573653 -131.893858 9 4503ft 171kts
24-Jun-19 17:21 53.620631 -131.884626 9 4497ft 169kts
24-Jun-19 17:22 53.667588 -131.874957 9 4499ft 170kts
24-Jun-19 17:23 53.714681 -131.865175 9 4498ft 170kts
24-Jun-19 17:24 53.761872 -131.855490 9 4497ft 170kts
24-Jun-19 17:25 53.810849 -131.845241 9 4501ft 189kts
24-Jun-19 17:26 53.864250 -131.834222 8 4501ft 195kts
24-Jun-19 17:27 53.918194 -131.823075 8 4501ft 195kts
24-Jun-19 17:28 53.972218 -131.811786 9 4500ft 195kts
24-Jun-19 17:29 54.026201 -131.800491 8 4501ft 195kts
24-Jun-19 17:30 54.080195 -131.789183 9 4503ft 195kts
24-Jun-19 17:31 54.134258 -131.777841 8 4502ft 195kts
24-Jun-19 17:32 54.188209 -131.766475 8 4503ft 195kts
24-Jun-19 17:33 54.242040 -131.755097 8 4503ft 195kts
24-Jun-19 17:34 54.295929 -131.743674 8 4505ft 195kts
24-Jun-19 17:35 54.349918 -131.732200 8 4507ft 194kts
24-Jun-19 17:36 54.403559 -131.720769 8 4501ft 194kts
24-Jun-19 17:37 54.457303 -131.709285 8 4502ft 194kts
24-Jun-19 17:38 54.511130 -131.697755 8 4504ft 194kts
24-Jun-19 17:39 54.564575 -131.686274 8 4507ft 194kts
24-Jun-19 17:40 54.618247 -131.674713 8 4508ft 193kts
24-Jun-19 17:41 54.671637 -131.663185 8 4509ft 193kts
24-Jun-19 17:42 54.725107 -131.651607 7 4510ft 193kts
24-Jun-19 17:43 54.778514 -131.640013 7 4511ft 193kts
24-Jun-19 17:44 54.831713 -131.628426 7 4512ft 192kts
24-Jun-19 17:45 54.884784 -131.616848 7 4513ft 192kts
24-Jun-19 17:46 54.938056 -131.605184 7 4513ft 192kts
24-Jun-19 17:47 54.990962 -131.593598 7 4512ft 192kts
24-Jun-19 17:48 55.043892 -131.581965 7 4513ft 191kts
24-Jun-19 17:49 55.095864 -131.597411 342 4518ft 191kts
24-Jun-19 17:50 55.146528 -131.625373 342 4522ft 191kts
24-Jun-19 17:51 55.197422 -131.653367 342 4521ft 191kts
24-Jun-19 17:52 55.248047 -131.681244 342 4517ft 191kts
24-Jun-19 17:53 55.298578 -131.709142 342 4514ft 190kts
24-Jun-19 17:54 55.348903 -131.736998 341 4513ft 190kts
24-Jun-19 17:55 55.399423 -131.765035 341 4512ft 189kts
24-Jun-19 17:56 55.449770 -131.793065 341 4510ft 189kts
24-Jun-19 17:57 55.500039 -131.821119 341 4499ft 189kts
24-Jun-19 17:58 55.550233 -131.849213 341 4497ft 189kts
24-Jun-19 17:59 55.600491 -131.877405 341 4495ft 189kts
24-Jun-19 18:00 55.650542 -131.905544 341 4492ft 189kts
24-Jun-19 18:01 55.700647 -131.933820 341 4499ft 188kts
24-Jun-19 18:02 55.750676 -131.962124 341 4497ft 188kts
24-Jun-19 18:03 55.800702 -131.990493 341 4495ft 188kts
24-Jun-19 18:04 55.850760 -132.018961 341 4493ft 188kts
24-Jun-19 18:05 55.900738 -132.047460 341 4492ft 188kts
24-Jun-19 18:06 55.950762 -132.076062 341 4493ft 188kts
24-Jun-19 18:07 56.000749 -132.104720 341 4493ft 188kts
24-Jun-19 18:08 56.050748 -132.133465 341 4492ft 188kts
24-Jun-19 18:09 56.100682 -132.162248 341 4485ft 188kts
24-Jun-19 18:10 56.150716 -132.191169 341 4483ft 188kts
24-Jun-19 18:11 56.200716 -132.220152 341 4482ft 188kts
24-Jun-19 18:12 56.250660 -132.249180 341 4481ft 188kts
24-Jun-19 18:13 56.300558 -132.278246 341 4482ft 188kts
24-Jun-19 18:14 56.350436 -132.307484 341 4498ft 188kts
24-Jun-19 18:15 56.400372 -132.336645 341 4499ft 189kts
24-Jun-19 18:16 56.450305 -132.366041 341 4498ft 188kts
24-Jun-19 18:17 56.494537 -132.410614 302 4503ft 186kts
24-Jun-19 18:18 56.520802 -132.491910 299 4498ft 187kts
24-Jun-19 18:19 56.546868 -132.573605 300 4499ft 187kts
24-Jun-19 18:20 56.572984 -132.655286 300 4496ft 187kts
24-Jun-19 18:21 56.599068 -132.737018 299 4494ft 187kts
24-Jun-19 18:22 56.625093 -132.818714 300 4491ft 186kts
24-Jun-19 18:23 56.651046 -132.900604 299 4491ft 187kts
24-Jun-19 18:24 56.676823 -132.982431 300 4493ft 186kts
24-Jun-19 18:25 56.702779 -133.064784 299 4500ft 188kts
24-Jun-19 18:26 56.728647 -133.147438 299 4498ft 187kts
24-Jun-19 18:28 56.754446 -133.230069 299 4503ft 189kts
24-Jun-19 18:29 56.780298 -133.313158 299 4504ft 187kts
24-Jun-19 18:30 56.805970 -133.395871 299 4510ft 187kts
24-Jun-19 18:31 56.831703 -133.479195 299 4521ft 193kts
24-Jun-19 18:32 56.857987 -133.564468 299 4508ft 194kts
24-Jun-19 18:33 56.883902 -133.648909 300 4500ft 187kts
24-Jun-19 18:34 56.909380 -133.732261 299 4510ft 188kts
24-Jun-19 18:35 56.934925 -133.816142 299 4501ft 187kts
24-Jun-19 18:36 56.960390 -133.899468 302 4504ft 190kts
24-Jun-19 18:37 57.002991 -133.954627 329 4503ft 187kts
24-Jun-19 18:38 57.048136 -134.002448 329 4502ft 187kts
24-Jun-19 18:39 57.093139 -134.050927 329 4501ft 187kts
24-Jun-19 18:40 57.129211 -134.089925 329 4499ft 187kts
24-Jun-19 18:41 57.174108 -134.138654 329 4495ft 188kts
24-Jun-19 18:42 57.219367 -134.187956 329 4497ft 193kts
24-Jun-19 18:43 57.265574 -134.238349 329 4486ft 190kts
24-Jun-19 18:44 57.311072 -134.288046 329 4485ft 191kts
24-Jun-19 18:45 57.356556 -134.338090 329 4479ft 188kts
24-Jun-19 18:45 57.394203 -134.379367 329 4477ft 188kts
24-Jun-19 18:47 57.446680 -134.437373 329 4474ft 188kts
24-Jun-19 18:48 57.491751 -134.487420 329 4474ft 188kts
24-Jun-19 18:48 57.529152 -134.528949 329 4473ft 188kts
24-Jun-19 18:49 57.574142 -134.579001 328 4474ft 188kts
24-Jun-19 18:51 57.626499 -134.637522 329 4472ft 188kts
24-Jun-19 18:51 57.664023 -134.679592 328 4470ft 188kts
24-Jun-19 18:52 57.708866 -134.729973 328 4468ft 188kts
24-Jun-19 18:53 57.753811 -134.780599 328 4465ft 188kts
24-Jun-19 18:54 57.798557 -134.831153 328 4499ft 188kts
24-Jun-19 18:55 57.843435 -134.882011 328 4493ft 188kts
24-Jun-19 18:56 57.888329 -134.933039 328 4490ft 188kts
24-Jun-19 18:57 57.933082 -134.984053 328 4487ft 188kts
24-Jun-19 18:58 57.977867 -135.035251 328 4484ft 188kts
24-Jun-19 18:59 58.022730 -135.086664 328 4483ft 189kts
24-Jun-19 19:00 58.068798 -135.139729 328 4157ft 203kts
24-Jun-19 19:01 58.117163 -135.195556 328 3459ft 202kts
24-Jun-19 19:02 58.165141 -135.251201 326 2771ft 201kts
24-Jun-19 19:03 58.209933 -135.314287 327 2092ft 200kts
24-Jun-19 19:04 58.257129 -135.369258 327 1407ft 198kts
24-Jun-19 19:05 58.288610 -135.405509 327 1116ft 193kts
24-Jun-19 19:06 58.332949 -135.458921 325 1170ft 184kts
24-Jun-19 19:07 58.376150 -135.513205 322 1225ft 188kts
24-Jun-19 19:08 58.418901 -135.570680 317 1232ft 187kts
24-Jun-19 19:09 58.452195 -135.634792 284 1615ft 134kts
24-Jun-19 19:10 58.434569 -135.694469 221 453ft 131kts
24-Jun-19 19:11 58.420113 -135.718028 35 24ft 19kts
24-Jun-19 19:12 58.423343 -135.712044 52 25ft 16kts
24-Jun-19 19:13 58.421640 -135.708319 134 24ft 8kts
24-Jun-19 19:14 58.422458 -135.706699 261 24ft 7kts
24-Jun-19 19:15 58.424015 -135.711300 348 24ft 10kts
24-Jun-19 19:16 58.426793 -135.706360 119 24ft 19kts
24-Jun-19 19:17 58.423240 -135.702436 134 24ft 13kts
24-Jun-19 19:18 58.422480 -135.703051 319 24ft 0kts
24-Jun-19 19:19 58.422480 -135.703051 319 24ft 0kts
24-Jun-19 19:20 58.422480 -135.703051 319 24ft 0kts
24-Jun-19 19:21 58.422480 -135.703051 319 24ft 0kts
24-Jun-19 19:22 58.422480 -135.703051 319 24ft 0kts
24-Jun-19 19:23 58.422480 -135.703051 319 24ft 0kts

Navigation Log

Ident Type
Flight plan parsing failed, navigation log unavailable